Terminal Aerodrome Forecast
Issued by NWS

Home | Current Version | Previous Version | Text Only | Print | Product List | Glossary On
Versions: 1 2 3 4 5 6 7 8 9 10 11 12 13 14 15 16
000
FTUS45 KTFX 281100
TAFCTB
TAF
KCTB 281132Z 2812/0112 28006KT P6SM SCT012
      TEMPO 2812/2814 3SM BR SCT008
     FM281500 32008KT P6SM SCT015 SCT150
     FM010600 29006KT P6SM SCT020 BKN035=

USA.gov is the U.S. government's official web portal to all federal, state and local government web resources and services.